sensor_id;sensor_type;location;lat;lon;timestamp;P1;durP1;ratioP1;P2;durP2;ratioP2
21905;SDS011;11117;48.644;9.006;2024-03-22T00:00:28;22.77;;;14.67;;
21905;SDS011;11117;48.644;9.006;2024-03-22T00:02:54;21.70;;;13.53;;
21905;SDS011;11117;48.644;9.006;2024-03-22T00:05:19;23.40;;;13.63;;
21905;SDS011;11117;48.644;9.006;2024-03-22T00:07:45;19.50;;;14.23;;
21905;SDS011;11117;48.644;9.006;2024-03-22T00:10:10;21.13;;;14.40;;
21905;SDS011;11117;48.644;9.006;2024-03-22T00:12:36;21.87;;;14.63;;
21905;SDS011;11117;48.644;9.006;2024-03-22T00:15:02;25.87;;;15.13;;
21905;SDS011;11117;48.644;9.006;2024-03-22T00:17:27;24.53;;;14.97;;
21905;SDS011;11117;48.644;9.006;2024-03-22T00:19:53;28.80;;;14.47;;
21905;SDS011;11117;48.644;9.006;2024-03-22T00:22:18;26.70;;;14.23;;
21905;SDS011;11117;48.644;9.006;2024-03-22T00:24:44;23.57;;;14.90;;
21905;SDS011;11117;48.644;9.006;2024-03-22T00:27:10;25.47;;;16.10;;
21905;SDS011;11117;48.644;9.006;2024-03-22T00:29:35;25.57;;;16.47;;
21905;SDS011;11117;48.644;9.006;2024-03-22T00:32:01;27.00;;;16.97;;
21905;SDS011;11117;48.644;9.006;2024-03-22T00:34:27;24.13;;;16.07;;
21905;SDS011;11117;48.644;9.006;2024-03-22T00:36:52;27.87;;;15.17;;
21905;SDS011;11117;48.644;9.006;2024-03-22T00:39:18;24.37;;;15.67;;
21905;SDS011;11117;48.644;9.006;2024-03-22T00:41:43;23.77;;;15.50;;
21905;SDS011;11117;48.644;9.006;2024-03-22T00:44:09;29.43;;;15.70;;
21905;SDS011;11117;48.644;9.006;2024-03-22T00:46:34;22.23;;;14.43;;
21905;SDS011;11117;48.644;9.006;2024-03-22T00:49:00;24.57;;;16.40;;
21905;SDS011;11117;48.644;9.006;2024-03-22T00:51:25;27.93;;;15.47;;
21905;SDS011;11117;48.644;9.006;2024-03-22T00:53:51;25.60;;;16.00;;
21905;SDS011;11117;48.644;9.006;2024-03-22T00:56:17;26.70;;;15.03;;
21905;SDS011;11117;48.644;9.006;2024-03-22T00:58:43;24.13;;;15.43;;
21905;SDS011;11117;48.644;9.006;2024-03-22T01:01:08;24.03;;;16.07;;
21905;SDS011;11117;48.644;9.006;2024-03-22T01:03:36;28.03;;;16.17;;
21905;SDS011;11117;48.644;9.006;2024-03-22T01:06:03;29.80;;;16.40;;
21905;SDS011;11117;48.644;9.006;2024-03-22T01:08:28;29.17;;;16.83;;
21905;SDS011;11117;48.644;9.006;2024-03-22T01:10:54;27.03;;;16.93;;
21905;SDS011;11117;48.644;9.006;2024-03-22T01:13:20;27.27;;;16.53;;
21905;SDS011;11117;48.644;9.006;2024-03-22T01:15:45;28.33;;;17.10;;
21905;SDS011;11117;48.644;9.006;2024-03-22T01:18:11;29.43;;;16.83;;
21905;SDS011;11117;48.644;9.006;2024-03-22T01:20:37;22.00;;;15.83;;
21905;SDS011;11117;48.644;9.006;2024-03-22T01:23:02;27.13;;;16.43;;
21905;SDS011;11117;48.644;9.006;2024-03-22T01:25:28;28.57;;;16.13;;
21905;SDS011;11117;48.644;9.006;2024-03-22T01:27:55;25.80;;;16.50;;
21905;SDS011;11117;48.644;9.006;2024-03-22T01:30:21;26.63;;;16.30;;
21905;SDS011;11117;48.644;9.006;2024-03-22T01:32:46;23.50;;;15.20;;
21905;SDS011;11117;48.644;9.006;2024-03-22T01:35:12;23.83;;;15.47;;
21905;SDS011;11117;48.644;9.006;2024-03-22T01:37:37;26.87;;;16.20;;
21905;SDS011;11117;48.644;9.006;2024-03-22T01:40:03;25.63;;;16.13;;
21905;SDS011;11117;48.644;9.006;2024-03-22T01:42:30;32.33;;;16.80;;
21905;SDS011;11117;48.644;9.006;2024-03-22T01:44:55;26.77;;;17.43;;
21905;SDS011;11117;48.644;9.006;2024-03-22T01:47:21;23.50;;;16.30;;
21905;SDS011;11117;48.644;9.006;2024-03-22T01:49:47;27.37;;;16.47;;
21905;SDS011;11117;48.644;9.006;2024-03-22T01:52:15;26.77;;;17.10;;
21905;SDS011;11117;48.644;9.006;2024-03-22T01:54:41;31.30;;;17.77;;
21905;SDS011;11117;48.644;9.006;2024-03-22T01:57:07;30.03;;;18.30;;
21905;SDS011;11117;48.644;9.006;2024-03-22T01:59:32;28.73;;;16.67;;
21905;SDS011;11117;48.644;9.006;2024-03-22T02:01:59;29.17;;;17.23;;
21905;SDS011;11117;48.644;9.006;2024-03-22T02:04:24;30.87;;;17.77;;
21905;SDS011;11117;48.644;9.006;2024-03-22T02:06:50;26.77;;;16.20;;
21905;SDS011;11117;48.644;9.006;2024-03-22T02:09:16;27.57;;;16.77;;
21905;SDS011;11117;48.644;9.006;2024-03-22T02:11:43;28.13;;;17.50;;
21905;SDS011;11117;48.644;9.006;2024-03-22T02:14:08;30.33;;;17.40;;
21905;SDS011;11117;48.644;9.006;2024-03-22T02:16:34;27.33;;;16.53;;
21905;SDS011;11117;48.644;9.006;2024-03-22T02:18:59;27.67;;;17.20;;
21905;SDS011;11117;48.644;9.006;2024-03-22T02:21:25;29.37;;;17.20;;
21905;SDS011;11117;48.644;9.006;2024-03-22T02:23:51;31.67;;;17.80;;
21905;SDS011;11117;48.644;9.006;2024-03-22T02:26:16;25.57;;;16.57;;
21905;SDS011;11117;48.644;9.006;2024-03-22T02:28:42;28.87;;;16.97;;
21905;SDS011;11117;48.644;9.006;2024-03-22T02:31:07;31.60;;;17.43;;
21905;SDS011;11117;48.644;9.006;2024-03-22T02:33:35;29.93;;;17.43;;
21905;SDS011;11117;48.644;9.006;2024-03-22T02:36:00;29.77;;;16.87;;
21905;SDS011;11117;48.644;9.006;2024-03-22T02:38:26;27.40;;;16.47;;
21905;SDS011;11117;48.644;9.006;2024-03-22T02:40:52;26.60;;;16.33;;
21905;SDS011;11117;48.644;9.006;2024-03-22T02:43:17;24.90;;;15.93;;
21905;SDS011;11117;48.644;9.006;2024-03-22T02:45:43;29.60;;;16.80;;
21905;SDS011;11117;48.644;9.006;2024-03-22T02:48:09;28.50;;;16.90;;
21905;SDS011;11117;48.644;9.006;2024-03-22T02:50:35;28.30;;;17.40;;
21905;SDS011;11117;48.644;9.006;2024-03-22T02:53:01;28.17;;;16.27;;
21905;SDS011;11117;48.644;9.006;2024-03-22T02:55:28;23.97;;;15.87;;
21905;SDS011;11117;48.644;9.006;2024-03-22T02:57:53;28.33;;;16.57;;
21905;SDS011;11117;48.644;9.006;2024-03-22T03:00:21;28.47;;;16.57;;
21905;SDS011;11117;48.644;9.006;2024-03-22T03:02:46;28.97;;;16.60;;
21905;SDS011;11117;48.644;9.006;2024-03-22T03:05:12;27.63;;;17.40;;
21905;SDS011;11117;48.644;9.006;2024-03-22T03:07:37;31.07;;;16.87;;
21905;SDS011;11117;48.644;9.006;2024-03-22T03:10:03;26.10;;;17.00;;
21905;SDS011;11117;48.644;9.006;2024-03-22T03:12:28;31.70;;;17.13;;
21905;SDS011;11117;48.644;9.006;2024-03-22T03:14:54;32.73;;;16.57;;
21905;SDS011;11117;48.644;9.006;2024-03-22T03:17:20;32.83;;;17.70;;
21905;SDS011;11117;48.644;9.006;2024-03-22T03:19:45;29.20;;;16.33;;
21905;SDS011;11117;48.644;9.006;2024-03-22T03:22:11;28.77;;;17.97;;
21905;SDS011;11117;48.644;9.006;2024-03-22T03:24:36;27.10;;;16.80;;
21905;SDS011;11117;48.644;9.006;2024-03-22T03:27:02;27.13;;;16.60;;
21905;SDS011;11117;48.644;9.006;2024-03-22T03:29:27;29.40;;;17.10;;
21905;SDS011;11117;48.644;9.006;2024-03-22T03:31:53;25.57;;;16.60;;
21905;SDS011;11117;48.644;9.006;2024-03-22T03:34:19;30.67;;;18.23;;
21905;SDS011;11117;48.644;9.006;2024-03-22T03:36:44;31.00;;;17.83;;
21905;SDS011;11117;48.644;9.006;2024-03-22T03:39:10;32.93;;;17.17;;
21905;SDS011;11117;48.644;9.006;2024-03-22T03:41:35;32.50;;;18.10;;
21905;SDS011;11117;48.644;9.006;2024-03-22T03:44:01;31.73;;;17.77;;
21905;SDS011;11117;48.644;9.006;2024-03-22T03:46:27;27.33;;;17.50;;
21905;SDS011;11117;48.644;9.006;2024-03-22T03:48:52;29.90;;;17.33;;
21905;SDS011;11117;48.644;9.006;2024-03-22T03:51:18;27.53;;;17.57;;
21905;SDS011;11117;48.644;9.006;2024-03-22T03:53:43;33.17;;;18.30;;
21905;SDS011;11117;48.644;9.006;2024-03-22T03:56:09;29.20;;;17.30;;
21905;SDS011;11117;48.644;9.006;2024-03-22T03:58:36;27.37;;;17.33;;
21905;SDS011;11117;48.644;9.006;2024-03-22T04:01:06;27.70;;;17.03;;
21905;SDS011;11117;48.644;9.006;2024-03-22T04:03:36;27.50;;;16.87;;
21905;SDS011;11117;48.644;9.006;2024-03-22T04:06:02;28.30;;;16.30;;
21905;SDS011;11117;48.644;9.006;2024-03-22T04:08:28;28.20;;;17.97;;
21905;SDS011;11117;48.644;9.006;2024-03-22T04:10:53;29.50;;;17.03;;
21905;SDS011;11117;48.644;9.006;2024-03-22T04:13:20;27.13;;;17.17;;
21905;SDS011;11117;48.644;9.006;2024-03-22T04:15:45;31.13;;;17.07;;
21905;SDS011;11117;48.644;9.006;2024-03-22T04:18:11;31.57;;;17.00;;
21905;SDS011;11117;48.644;9.006;2024-03-22T04:20:36;25.83;;;16.40;;
21905;SDS011;11117;48.644;9.006;2024-03-22T04:23:02;28.47;;;16.97;;
21905;SDS011;11117;48.644;9.006;2024-03-22T04:25:27;27.63;;;16.30;;
21905;SDS011;11117;48.644;9.006;2024-03-22T04:27:53;29.47;;;17.27;;
21905;SDS011;11117;48.644;9.006;2024-03-22T04:30:18;27.47;;;16.33;;
21905;SDS011;11117;48.644;9.006;2024-03-22T04:32:45;23.23;;;16.40;;
21905;SDS011;11117;48.644;9.006;2024-03-22T04:35:11;25.57;;;16.00;;
21905;SDS011;11117;48.644;9.006;2024-03-22T04:37:37;24.17;;;15.63;;
21905;SDS011;11117;48.644;9.006;2024-03-22T04:40:03;23.17;;;15.37;;
21905;SDS011;11117;48.644;9.006;2024-03-22T04:42:29;29.63;;;16.17;;
21905;SDS011;11117;48.644;9.006;2024-03-22T04:44:54;27.17;;;15.67;;
21905;SDS011;11117;48.644;9.006;2024-03-22T04:47:20;24.77;;;16.10;;
21905;SDS011;11117;48.644;9.006;2024-03-22T04:49:45;29.77;;;16.13;;
21905;SDS011;11117;48.644;9.006;2024-03-22T04:52:11;30.00;;;15.60;;
21905;SDS011;11117;48.644;9.006;2024-03-22T04:54:37;25.10;;;16.20;;
21905;SDS011;11117;48.644;9.006;2024-03-22T04:57:02;26.50;;;16.33;;
21905;SDS011;11117;48.644;9.006;2024-03-22T04:59:28;28.77;;;17.93;;
21905;SDS011;11117;48.644;9.006;2024-03-22T05:01:55;25.23;;;16.87;;
21905;SDS011;11117;48.644;9.006;2024-03-22T05:04:20;27.97;;;16.33;;
21905;SDS011;11117;48.644;9.006;2024-03-22T05:06:46;24.30;;;15.07;;
21905;SDS011;11117;48.644;9.006;2024-03-22T05:09:11;27.63;;;15.80;;
21905;SDS011;11117;48.644;9.006;2024-03-22T05:11:37;25.67;;;15.37;;
21905;SDS011;11117;48.644;9.006;2024-03-22T05:14:02;26.40;;;16.23;;
21905;SDS011;11117;48.644;9.006;2024-03-22T05:16:28;30.20;;;17.37;;
21905;SDS011;11117;48.644;9.006;2024-03-22T05:18:53;24.77;;;15.93;;
21905;SDS011;11117;48.644;9.006;2024-03-22T05:21:19;22.33;;;14.80;;
21905;SDS011;11117;48.644;9.006;2024-03-22T05:23:45;24.50;;;15.27;;
21905;SDS011;11117;48.644;9.006;2024-03-22T05:26:10;22.43;;;14.53;;
21905;SDS011;11117;48.644;9.006;2024-03-22T05:28:36;25.67;;;15.20;;
21905;SDS011;11117;48.644;9.006;2024-03-22T05:31:02;25.77;;;15.87;;
21905;SDS011;11117;48.644;9.006;2024-03-22T05:33:28;35.53;;;16.03;;
21905;SDS011;11117;48.644;9.006;2024-03-22T05:35:53;22.90;;;15.20;;
21905;SDS011;11117;48.644;9.006;2024-03-22T05:38:19;26.07;;;15.93;;
21905;SDS011;11117;48.644;9.006;2024-03-22T05:40:44;23.53;;;15.23;;
21905;SDS011;11117;48.644;9.006;2024-03-22T05:43:10;29.70;;;15.00;;
21905;SDS011;11117;48.644;9.006;2024-03-22T05:45:35;28.13;;;16.20;;
21905;SDS011;11117;48.644;9.006;2024-03-22T05:48:01;30.87;;;14.80;;
21905;SDS011;11117;48.644;9.006;2024-03-22T05:50:26;29.10;;;15.50;;
21905;SDS011;11117;48.644;9.006;2024-03-22T05:52:52;25.10;;;15.80;;
21905;SDS011;11117;48.644;9.006;2024-03-22T05:55:17;28.80;;;15.80;;
21905;SDS011;11117;48.644;9.006;2024-03-22T05:57:43;24.10;;;17.57;;
21905;SDS011;11117;48.644;9.006;2024-03-22T06:00:08;22.67;;;16.10;;
21905;SDS011;11117;48.644;9.006;2024-03-22T06:02:34;26.73;;;15.83;;
21905;SDS011;11117;48.644;9.006;2024-03-22T06:05:00;27.20;;;16.03;;
21905;SDS011;11117;48.644;9.006;2024-03-22T06:07:25;78.57;;;20.13;;
21905;SDS011;11117;48.644;9.006;2024-03-22T06:09:51;29.37;;;16.63;;
21905;SDS011;11117;48.644;9.006;2024-03-22T06:12:17;31.80;;;17.13;;
21905;SDS011;11117;48.644;9.006;2024-03-22T06:14:43;41.27;;;27.23;;
21905;SDS011;11117;48.644;9.006;2024-03-22T06:17:09;47.27;;;25.10;;
21905;SDS011;11117;48.644;9.006;2024-03-22T06:19:35;26.50;;;17.03;;
21905;SDS011;11117;48.644;9.006;2024-03-22T06:22:02;26.70;;;16.53;;
21905;SDS011;11117;48.644;9.006;2024-03-22T06:24:27;30.03;;;16.33;;
21905;SDS011;11117;48.644;9.006;2024-03-22T06:26:53;25.20;;;14.73;;
21905;SDS011;11117;48.644;9.006;2024-03-22T06:29:19;23.93;;;14.80;;
21905;SDS011;11117;48.644;9.006;2024-03-22T06:31:44;24.83;;;15.63;;
21905;SDS011;11117;48.644;9.006;2024-03-22T06:34:10;28.20;;;15.97;;
21905;SDS011;11117;48.644;9.006;2024-03-22T06:36:35;24.23;;;14.60;;
21905;SDS011;11117;48.644;9.006;2024-03-22T06:39:01;26.67;;;15.47;;
21905;SDS011;11117;48.644;9.006;2024-03-22T06:41:27;26.67;;;14.63;;
21905;SDS011;11117;48.644;9.006;2024-03-22T06:43:53;24.67;;;15.40;;
21905;SDS011;11117;48.644;9.006;2024-03-22T06:46:18;23.83;;;14.53;;
21905;SDS011;11117;48.644;9.006;2024-03-22T06:48:44;26.07;;;14.47;;
21905;SDS011;11117;48.644;9.006;2024-03-22T06:51:10;25.50;;;14.50;;
21905;SDS011;11117;48.644;9.006;2024-03-22T06:53:36;24.67;;;13.90;;
21905;SDS011;11117;48.644;9.006;2024-03-22T06:56:02;24.13;;;14.70;;
21905;SDS011;11117;48.644;9.006;2024-03-22T06:58:28;22.13;;;14.47;;
21905;SDS011;11117;48.644;9.006;2024-03-22T07:00:53;19.67;;;13.63;;
21905;SDS011;11117;48.644;9.006;2024-03-22T07:03:19;22.07;;;13.73;;
21905;SDS011;11117;48.644;9.006;2024-03-22T07:05:46;23.33;;;13.10;;
21905;SDS011;11117;48.644;9.006;2024-03-22T07:08:12;20.70;;;13.20;;
21905;SDS011;11117;48.644;9.006;2024-03-22T07:10:38;24.03;;;13.93;;
21905;SDS011;11117;48.644;9.006;2024-03-22T07:13:04;20.73;;;13.57;;
21905;SDS011;11117;48.644;9.006;2024-03-22T07:15:30;23.67;;;13.80;;
21905;SDS011;11117;48.644;9.006;2024-03-22T07:17:55;24.13;;;16.50;;
21905;SDS011;11117;48.644;9.006;2024-03-22T07:20:21;24.83;;;17.33;;
21905;SDS011;11117;48.644;9.006;2024-03-22T07:22:46;25.57;;;14.67;;
21905;SDS011;11117;48.644;9.006;2024-03-22T07:25:12;24.70;;;16.60;;
21905;SDS011;11117;48.644;9.006;2024-03-22T07:27:38;23.27;;;14.80;;
21905;SDS011;11117;48.644;9.006;2024-03-22T07:30:03;24.27;;;15.27;;
21905;SDS011;11117;48.644;9.006;2024-03-22T07:32:30;22.27;;;14.10;;
21905;SDS011;11117;48.644;9.006;2024-03-22T07:34:55;21.60;;;13.70;;
21905;SDS011;11117;48.644;9.006;2024-03-22T07:37:21;18.07;;;12.17;;
21905;SDS011;11117;48.644;9.006;2024-03-22T07:39:47;22.63;;;12.77;;
21905;SDS011;11117;48.644;9.006;2024-03-22T07:42:12;20.00;;;12.87;;
21905;SDS011;11117;48.644;9.006;2024-03-22T07:44:38;22.07;;;12.60;;
21905;SDS011;11117;48.644;9.006;2024-03-22T07:47:03;18.87;;;12.37;;
21905;SDS011;11117;48.644;9.006;2024-03-22T07:49:29;17.30;;;12.77;;
21905;SDS011;11117;48.644;9.006;2024-03-22T07:51:55;19.03;;;12.63;;
21905;SDS011;11117;48.644;9.006;2024-03-22T07:54:20;26.50;;;12.33;;
21905;SDS011;11117;48.644;9.006;2024-03-22T07:56:46;19.03;;;12.33;;
21905;SDS011;11117;48.644;9.006;2024-03-22T07:59:11;28.67;;;12.33;;
21905;SDS011;11117;48.644;9.006;2024-03-22T08:01:37;35.30;;;12.47;;
21905;SDS011;11117;48.644;9.006;2024-03-22T08:04:02;26.60;;;11.77;;
21905;SDS011;11117;48.644;9.006;2024-03-22T08:06:29;23.30;;;10.80;;
21905;SDS011;11117;48.644;9.006;2024-03-22T08:08:54;18.93;;;10.50;;
21905;SDS011;11117;48.644;9.006;2024-03-22T08:11:20;19.77;;;11.00;;
21905;SDS011;11117;48.644;9.006;2024-03-22T08:13:45;17.83;;;11.23;;
21905;SDS011;11117;48.644;9.006;2024-03-22T08:16:11;18.70;;;11.33;;
21905;SDS011;11117;48.644;9.006;2024-03-22T08:18:36;17.83;;;11.47;;
21905;SDS011;11117;48.644;9.006;2024-03-22T08:21:02;16.20;;;11.13;;
21905;SDS011;11117;48.644;9.006;2024-03-22T08:23:28;19.60;;;11.03;;
21905;SDS011;11117;48.644;9.006;2024-03-22T08:25:53;21.63;;;10.87;;
21905;SDS011;11117;48.644;9.006;2024-03-22T08:28:19;19.00;;;11.33;;
21905;SDS011;11117;48.644;9.006;2024-03-22T08:30:44;17.83;;;9.97;;
21905;SDS011;11117;48.644;9.006;2024-03-22T08:33:10;14.60;;;10.37;;
21905;SDS011;11117;48.644;9.006;2024-03-22T08:35:36;16.87;;;10.33;;
21905;SDS011;11117;48.644;9.006;2024-03-22T08:38:02;13.50;;;9.20;;
21905;SDS011;11117;48.644;9.006;2024-03-22T08:40:27;16.23;;;9.48;;
21905;SDS011;11117;48.644;9.006;2024-03-22T08:42:53;15.90;;;8.87;;
21905;SDS011;11117;48.644;9.006;2024-03-22T08:45:18;13.70;;;9.13;;
21905;SDS011;11117;48.644;9.006;2024-03-22T08:47:44;13.57;;;9.25;;
21905;SDS011;11117;48.644;9.006;2024-03-22T08:50:09;13.10;;;8.73;;
21905;SDS011;11117;48.644;9.006;2024-03-22T08:52:35;14.63;;;8.98;;
21905;SDS011;11117;48.644;9.006;2024-03-22T08:55:01;15.55;;;9.40;;
21905;SDS011;11117;48.644;9.006;2024-03-22T08:57:26;14.93;;;10.02;;
21905;SDS011;11117;48.644;9.006;2024-03-22T08:59:52;15.10;;;10.18;;
21905;SDS011;11117;48.644;9.006;2024-03-22T09:02:17;14.80;;;9.43;;
21905;SDS011;11117;48.644;9.006;2024-03-22T09:04:43;20.42;;;9.18;;
21905;SDS011;11117;48.644;9.006;2024-03-22T09:07:09;12.90;;;8.13;;
21905;SDS011;11117;48.644;9.006;2024-03-22T09:09:34;12.95;;;8.30;;
21905;SDS011;11117;48.644;9.006;2024-03-22T09:12:00;14.55;;;8.88;;
21905;SDS011;11117;48.644;9.006;2024-03-22T09:14:25;12.60;;;8.40;;
21905;SDS011;11117;48.644;9.006;2024-03-22T09:16:51;15.20;;;8.00;;
21905;SDS011;11117;48.644;9.006;2024-03-22T09:19:16;10.25;;;7.80;;
21905;SDS011;11117;48.644;9.006;2024-03-22T09:21:42;12.13;;;7.57;;
21905;SDS011;11117;48.644;9.006;2024-03-22T09:24:08;12.65;;;7.95;;
21905;SDS011;11117;48.644;9.006;2024-03-22T09:26:33;12.43;;;7.60;;
21905;SDS011;11117;48.644;9.006;2024-03-22T09:28:59;11.18;;;6.82;;
21905;SDS011;11117;48.644;9.006;2024-03-22T09:31:24;12.77;;;7.10;;
21905;SDS011;11117;48.644;9.006;2024-03-22T09:33:50;11.80;;;7.15;;
21905;SDS011;11117;48.644;9.006;2024-03-22T09:36:16;9.70;;;6.75;;
21905;SDS011;11117;48.644;9.006;2024-03-22T09:38:41;10.80;;;7.53;;
21905;SDS011;11117;48.644;9.006;2024-03-22T09:41:07;11.23;;;6.97;;
21905;SDS011;11117;48.644;9.006;2024-03-22T09:43:35;10.85;;;6.55;;
21905;SDS011;11117;48.644;9.006;2024-03-22T09:46:03;11.88;;;6.68;;
21905;SDS011;11117;48.644;9.006;2024-03-22T09:48:30;12.65;;;7.80;;
21905;SDS011;11117;48.644;9.006;2024-03-22T09:50:58;9.68;;;7.07;;
21905;SDS011;11117;48.644;9.006;2024-03-22T09:53:25;11.88;;;7.07;;
21905;SDS011;11117;48.644;9.006;2024-03-22T09:55:53;12.20;;;6.60;;
21905;SDS011;11117;48.644;9.006;2024-03-22T09:58:22;11.32;;;6.95;;
21905;SDS011;11117;48.644;9.006;2024-03-22T10:00:48;10.38;;;7.57;;
21905;SDS011;11117;48.644;9.006;2024-03-22T10:03:14;10.82;;;7.03;;
21905;SDS011;11117;48.644;9.006;2024-03-22T10:05:39;12.60;;;7.95;;
21905;SDS011;11117;48.644;9.006;2024-03-22T10:08:05;12.80;;;7.55;;
21905;SDS011;11117;48.644;9.006;2024-03-22T10:10:31;10.95;;;7.07;;
21905;SDS011;11117;48.644;9.006;2024-03-22T10:13:00;9.90;;;6.55;;
21905;SDS011;11117;48.644;9.006;2024-03-22T10:15:26;9.45;;;6.03;;
21905;SDS011;11117;48.644;9.006;2024-03-22T10:17:52;13.52;;;7.75;;
21905;SDS011;11117;48.644;9.006;2024-03-22T10:20:17;11.40;;;7.53;;
21905;SDS011;11117;48.644;9.006;2024-03-22T10:22:43;8.70;;;5.07;;
21905;SDS011;11117;48.644;9.006;2024-03-22T10:25:19;9.23;;;5.55;;
21905;SDS011;11117;48.644;9.006;2024-03-22T10:27:44;8.57;;;5.70;;
21905;SDS011;11117;48.644;9.006;2024-03-22T10:30:10;9.88;;;5.97;;
21905;SDS011;11117;48.644;9.006;2024-03-22T10:32:40;12.00;;;6.25;;
21905;SDS011;11117;48.644;9.006;2024-03-22T10:35:07;8.63;;;5.90;;
21905;SDS011;11117;48.644;9.006;2024-03-22T10:37:37;11.43;;;5.68;;
21905;SDS011;11117;48.644;9.006;2024-03-22T10:40:02;9.38;;;6.40;;
21905;SDS011;11117;48.644;9.006;2024-03-22T10:42:28;10.65;;;6.43;;
21905;SDS011;11117;48.644;9.006;2024-03-22T10:44:54;11.30;;;6.68;;
21905;SDS011;11117;48.644;9.006;2024-03-22T10:47:19;9.77;;;6.10;;
21905;SDS011;11117;48.644;9.006;2024-03-22T10:49:49;11.18;;;6.18;;
21905;SDS011;11117;48.644;9.006;2024-03-22T10:52:17;9.20;;;6.05;;
21905;SDS011;11117;48.644;9.006;2024-03-22T10:54:43;8.50;;;5.60;;
21905;SDS011;11117;48.644;9.006;2024-03-22T10:57:12;10.30;;;6.45;;
21905;SDS011;11117;48.644;9.006;2024-03-22T10:59:40;12.35;;;6.38;;
21905;SDS011;11117;48.644;9.006;2024-03-22T11:02:06;12.40;;;5.90;;
21905;SDS011;11117;48.644;9.006;2024-03-22T11:04:37;9.02;;;6.13;;
21905;SDS011;11117;48.644;9.006;2024-03-22T11:07:03;10.55;;;6.97;;
21905;SDS011;11117;48.644;9.006;2024-03-22T11:09:29;11.73;;;7.10;;
21905;SDS011;11117;48.644;9.006;2024-03-22T11:11:55;13.48;;;7.45;;
21905;SDS011;11117;48.644;9.006;2024-03-22T11:14:21;13.73;;;7.43;;
21905;SDS011;11117;48.644;9.006;2024-03-22T11:16:48;12.32;;;7.57;;
21905;SDS011;11117;48.644;9.006;2024-03-22T11:19:13;12.45;;;8.40;;
21905;SDS011;11117;48.644;9.006;2024-03-22T11:21:39;13.43;;;8.35;;
21905;SDS011;11117;48.644;9.006;2024-03-22T11:24:05;8.43;;;6.10;;
21905;SDS011;11117;48.644;9.006;2024-03-22T11:26:30;17.63;;;5.30;;
21905;SDS011;11117;48.644;9.006;2024-03-22T11:28:56;8.93;;;5.65;;
21905;SDS011;11117;48.644;9.006;2024-03-22T11:31:22;8.18;;;5.78;;
21905;SDS011;11117;48.644;9.006;2024-03-22T11:33:48;10.95;;;6.30;;
21905;SDS011;11117;48.644;9.006;2024-03-22T11:36:14;14.07;;;6.53;;
21905;SDS011;11117;48.644;9.006;2024-03-22T11:38:39;9.00;;;6.75;;
21905;SDS011;11117;48.644;9.006;2024-03-22T11:41:08;11.63;;;5.97;;
21905;SDS011;11117;48.644;9.006;2024-03-22T11:43:37;10.00;;;7.03;;
21905;SDS011;11117;48.644;9.006;2024-03-22T11:46:03;14.48;;;7.75;;
21905;SDS011;11117;48.644;9.006;2024-03-22T11:48:29;13.13;;;7.80;;
21905;SDS011;11117;48.644;9.006;2024-03-22T11:50:54;10.18;;;7.25;;
21905;SDS011;11117;48.644;9.006;2024-03-22T11:53:20;8.25;;;6.15;;
21905;SDS011;11117;48.644;9.006;2024-03-22T11:55:46;12.75;;;6.07;;
21905;SDS011;11117;48.644;9.006;2024-03-22T11:58:14;9.43;;;5.97;;
21905;SDS011;11117;48.644;9.006;2024-03-22T12:00:40;9.70;;;5.90;;
21905;SDS011;11117;48.644;9.006;2024-03-22T12:03:06;8.27;;;5.78;;
21905;SDS011;11117;48.644;9.006;2024-03-22T12:05:32;9.23;;;6.43;;
21905;SDS011;11117;48.644;9.006;2024-03-22T12:07:58;11.18;;;6.20;;
21905;SDS011;11117;48.644;9.006;2024-03-22T12:10:23;8.70;;;6.22;;
21905;SDS011;11117;48.644;9.006;2024-03-22T12:12:49;10.40;;;5.53;;
21905;SDS011;11117;48.644;9.006;2024-03-22T12:15:15;9.93;;;5.20;;
21905;SDS011;11117;48.644;9.006;2024-03-22T12:17:40;10.15;;;5.05;;
21905;SDS011;11117;48.644;9.006;2024-03-22T12:20:07;7.65;;;5.20;;
21905;SDS011;11117;48.644;9.006;2024-03-22T12:22:33;11.57;;;5.07;;
21905;SDS011;11117;48.644;9.006;2024-03-22T12:24:59;8.38;;;5.32;;
21905;SDS011;11117;48.644;9.006;2024-03-22T12:27:25;7.53;;;5.05;;
21905;SDS011;11117;48.644;9.006;2024-03-22T12:29:50;10.07;;;5.40;;
21905;SDS011;11117;48.644;9.006;2024-03-22T12:32:16;7.70;;;5.22;;
21905;SDS011;11117;48.644;9.006;2024-03-22T12:34:41;8.90;;;5.10;;
21905;SDS011;11117;48.644;9.006;2024-03-22T12:37:07;7.20;;;4.75;;
21905;SDS011;11117;48.644;9.006;2024-03-22T12:39:32;6.15;;;4.65;;
21905;SDS011;11117;48.644;9.006;2024-03-22T12:41:58;6.47;;;4.65;;
21905;SDS011;11117;48.644;9.006;2024-03-22T12:44:24;5.72;;;4.10;;
21905;SDS011;11117;48.644;9.006;2024-03-22T12:46:49;8.10;;;4.35;;
21905;SDS011;11117;48.644;9.006;2024-03-22T12:49:15;6.85;;;4.55;;
21905;SDS011;11117;48.644;9.006;2024-03-22T12:51:40;5.45;;;4.15;;
21905;SDS011;11117;48.644;9.006;2024-03-22T12:54:06;9.15;;;4.30;;
21905;SDS011;11117;48.644;9.006;2024-03-22T12:56:33;11.77;;;5.10;;
21905;SDS011;11117;48.644;9.006;2024-03-22T12:58:59;6.68;;;4.13;;
21905;SDS011;11117;48.644;9.006;2024-03-22T13:01:24;10.45;;;4.65;;
21905;SDS011;11117;48.644;9.006;2024-03-22T13:03:50;9.70;;;4.10;;
21905;SDS011;11117;48.644;9.006;2024-03-22T13:06:16;4.95;;;3.58;;
21905;SDS011;11117;48.644;9.006;2024-03-22T13:08:42;6.85;;;4.28;;
21905;SDS011;11117;48.644;9.006;2024-03-22T13:11:07;5.97;;;4.13;;
21905;SDS011;11117;48.644;9.006;2024-03-22T13:13:37;8.07;;;3.95;;
21905;SDS011;11117;48.644;9.006;2024-03-22T13:16:02;9.27;;;3.58;;
21905;SDS011;11117;48.644;9.006;2024-03-22T13:18:29;4.75;;;3.17;;
21905;SDS011;11117;48.644;9.006;2024-03-22T13:20:54;5.15;;;3.30;;
21905;SDS011;11117;48.644;9.006;2024-03-22T13:23:20;6.10;;;3.33;;
21905;SDS011;11117;48.644;9.006;2024-03-22T13:25:46;5.32;;;3.10;;
21905;SDS011;11117;48.644;9.006;2024-03-22T13:28:11;4.38;;;2.72;;
21905;SDS011;11117;48.644;9.006;2024-03-22T13:30:37;5.88;;;2.92;;
21905;SDS011;11117;48.644;9.006;2024-03-22T13:33:03;4.63;;;2.47;;
21905;SDS011;11117;48.644;9.006;2024-03-22T13:35:29;5.90;;;2.78;;
21905;SDS011;11117;48.644;9.006;2024-03-22T13:37:54;4.65;;;2.70;;
21905;SDS011;11117;48.644;9.006;2024-03-22T13:40:20;6.90;;;2.60;;
21905;SDS011;11117;48.644;9.006;2024-03-22T13:42:46;4.88;;;2.80;;
21905;SDS011;11117;48.644;9.006;2024-03-22T13:45:12;9.18;;;2.88;;
21905;SDS011;11117;48.644;9.006;2024-03-22T13:47:37;6.60;;;2.50;;
21905;SDS011;11117;48.644;9.006;2024-03-22T13:50:07;5.70;;;2.42;;
21905;SDS011;11117;48.644;9.006;2024-03-22T13:52:32;3.20;;;2.08;;
21905;SDS011;11117;48.644;9.006;2024-03-22T13:54:58;3.95;;;2.42;;
21905;SDS011;11117;48.644;9.006;2024-03-22T13:57:23;6.20;;;2.20;;
21905;SDS011;11117;48.644;9.006;2024-03-22T13:59:49;4.40;;;2.30;;
21905;SDS011;11117;48.644;9.006;2024-03-22T14:02:15;4.05;;;2.00;;
21905;SDS011;11117;48.644;9.006;2024-03-22T14:04:40;3.08;;;2.22;;
21905;SDS011;11117;48.644;9.006;2024-03-22T14:07:06;5.28;;;2.40;;
21905;SDS011;11117;48.644;9.006;2024-03-22T14:09:31;6.22;;;2.30;;
21905;SDS011;11117;48.644;9.006;2024-03-22T14:11:57;6.00;;;2.63;;
21905;SDS011;11117;48.644;9.006;2024-03-22T14:14:22;2.40;;;1.50;;
21905;SDS011;11117;48.644;9.006;2024-03-22T14:16:48;2.45;;;1.25;;
21905;SDS011;11117;48.644;9.006;2024-03-22T14:19:14;3.30;;;1.33;;